createdAt,value
2022-11-27T00:00:35.358Z,16.02
2022-11-27T00:03:01.741Z,16.83
2022-11-27T00:05:28.090Z,16.21
2022-11-27T00:07:54.374Z,14.74
2022-11-27T00:10:20.684Z,14.28
2022-11-27T00:12:46.932Z,14.33
2022-11-27T00:15:17.045Z,15.48
2022-11-27T00:17:43.610Z,15.17
2022-11-27T00:20:09.859Z,15.29
2022-11-27T00:22:36.097Z,14.82
2022-11-27T00:25:02.365Z,14.51
2022-11-27T00:27:28.608Z,13.75
2022-11-27T00:29:54.899Z,13.87
2022-11-27T00:32:21.143Z,13.44
2022-11-27T00:34:47.396Z,14.21
2022-11-27T00:37:13.733Z,13.82
2022-11-27T00:39:40.024Z,13.89
2022-11-27T00:42:06.276Z,13.07
2022-11-27T00:44:32.510Z,12.39
2022-11-27T00:46:58.775Z,12.40
2022-11-27T00:49:25.073Z,12.55
2022-11-27T00:51:51.322Z,12.40
2022-11-27T00:54:17.578Z,12.38
2022-11-27T00:56:43.808Z,12.23
2022-11-27T00:59:10.058Z,12.18
2022-11-27T01:01:36.339Z,12.79
2022-11-27T01:04:02.658Z,13.62
2022-11-27T01:06:28.934Z,13.90
2022-11-27T01:08:55.190Z,13.88
2022-11-27T01:11:21.449Z,14.27
2022-11-27T01:13:47.724Z,14.58
2022-11-27T01:16:14.029Z,14.45
2022-11-27T01:18:40.322Z,14.77
2022-11-27T01:21:06.589Z,13.96
2022-11-27T01:23:32.847Z,14.92
2022-11-27T01:25:59.113Z,15.13
2022-11-27T01:28:25.368Z,15.65
2022-11-27T01:30:51.767Z,16.06
2022-11-27T01:33:18.116Z,16.16
2022-11-27T01:35:44.380Z,17.11
2022-11-27T01:38:10.632Z,17.15
2022-11-27T01:40:36.881Z,17.90
2022-11-27T01:43:03.131Z,18.06
2022-11-27T01:45:29.386Z,18.16
2022-11-27T01:47:55.625Z,17.69
2022-11-27T01:50:21.897Z,17.84
2022-11-27T01:52:48.141Z,18.47
2022-11-27T01:55:14.395Z,18.54
2022-11-27T01:57:40.664Z,18.40
2022-11-27T02:00:06.919Z,18.52
2022-11-27T02:02:33.226Z,18.90
2022-11-27T02:04:59.529Z,19.74
2022-11-27T02:07:25.836Z,19.71
2022-11-27T02:09:52.161Z,19.16
2022-11-27T02:12:18.421Z,18.71
2022-11-27T02:14:44.698Z,18.47
2022-11-27T02:17:10.946Z,19.32
2022-11-27T02:19:37.187Z,18.69
2022-11-27T02:22:03.425Z,19.44
2022-11-27T02:24:29.789Z,18.47
2022-11-27T02:26:56.068Z,17.18
2022-11-27T02:29:22.318Z,17.67
2022-11-27T02:31:48.617Z,17.56
2022-11-27T02:34:14.935Z,16.80
2022-11-27T02:36:41.199Z,17.30
2022-11-27T02:39:07.497Z,16.85
2022-11-27T02:41:33.733Z,16.28
2022-11-27T02:43:59.987Z,16.27
2022-11-27T02:46:26.304Z,16.05
2022-11-27T02:48:52.605Z,16.30
2022-11-27T02:51:18.846Z,16.36
2022-11-27T02:53:45.108Z,17.15
2022-11-27T02:56:11.362Z,16.72
2022-11-27T02:58:37.629Z,17.40
2022-11-27T03:01:03.896Z,17.42
2022-11-27T03:03:30.177Z,16.28
2022-11-27T03:05:56.445Z,17.36
2022-11-27T03:08:22.707Z,17.16
2022-11-27T03:10:48.969Z,17.13
2022-11-27T03:13:15.236Z,15.97
2022-11-27T03:15:41.559Z,16.35
2022-11-27T03:18:07.862Z,15.94
2022-11-27T03:20:34.098Z,16.50
2022-11-27T03:23:00.457Z,16.51
2022-11-27T03:25:26.713Z,16.55
2022-11-27T03:27:52.998Z,15.95
2022-11-27T03:30:19.334Z,15.60
2022-11-27T03:32:45.573Z,15.12
2022-11-27T03:35:11.815Z,14.82
2022-11-27T03:37:38.068Z,15.88
2022-11-27T03:40:04.328Z,15.74
2022-11-27T03:42:30.581Z,16.72
2022-11-27T03:44:56.844Z,16.65
2022-11-27T03:47:23.143Z,16.77
2022-11-27T03:49:49.454Z,16.23
2022-11-27T03:52:15.717Z,16.01
2022-11-27T03:54:42.221Z,14.81
2022-11-27T03:57:08.738Z,14.96
2022-11-27T03:59:34.998Z,14.38
2022-11-27T04:02:01.320Z,13.31
2022-11-27T04:04:27.642Z,12.75
2022-11-27T04:06:53.893Z,12.43
2022-11-27T04:09:20.131Z,12.24
2022-11-27T04:11:46.366Z,12.50
2022-11-27T04:14:12.607Z,12.20
2022-11-27T04:16:38.862Z,12.30
2022-11-27T04:19:05.160Z,11.69
2022-11-27T04:21:31.416Z,12.47
2022-11-27T04:23:57.662Z,13.04
2022-11-27T04:26:23.901Z,13.02
2022-11-27T04:28:50.137Z,13.60
2022-11-27T04:31:16.437Z,12.98
2022-11-27T04:33:42.761Z,12.72
2022-11-27T04:36:09.005Z,12.76
2022-11-27T04:38:35.261Z,12.36
2022-11-27T04:41:01.502Z,11.98
2022-11-27T04:43:27.758Z,12.37
2022-11-27T04:45:53.993Z,12.38
2022-11-27T04:48:20.240Z,12.24
2022-11-27T04:50:46.499Z,12.80
2022-11-27T04:53:12.769Z,11.45
2022-11-27T04:55:39.012Z,11.63
2022-11-27T04:58:05.304Z,11.46
2022-11-27T05:00:31.595Z,11.17
2022-11-27T05:02:57.943Z,10.72
2022-11-27T05:05:24.273Z,10.68
2022-11-27T05:07:50.568Z,11.26
2022-11-27T05:10:16.888Z,11.39
2022-11-27T05:12:43.198Z,11.93
2022-11-27T05:15:09.454Z,11.23
2022-11-27T05:17:35.685Z,12.14
2022-11-27T05:20:01.948Z,11.89
2022-11-27T05:22:28.191Z,11.91
2022-11-27T05:24:54.429Z,12.91
2022-11-27T05:27:20.666Z,12.91
2022-11-27T05:29:46.910Z,13.36
2022-11-27T05:32:13.190Z,13.22
2022-11-27T05:34:39.899Z,14.57
2022-11-27T05:37:06.296Z,14.66
2022-11-27T05:39:32.553Z,14.86
2022-11-27T05:41:58.804Z,14.57
2022-11-27T05:44:25.045Z,15.23
2022-11-27T05:46:51.381Z,15.76
2022-11-27T05:49:17.661Z,13.87
2022-11-27T05:51:50.467Z,14.96
2022-11-27T05:54:17.395Z,15.95
2022-11-27T05:56:43.648Z,15.64
2022-11-27T05:59:09.890Z,15.83
2022-11-27T06:01:36.166Z,14.31
2022-11-27T06:04:02.427Z,14.72
2022-11-27T06:06:28.685Z,16.02
2022-11-27T06:08:54.936Z,16.69
2022-11-27T06:11:21.196Z,15.81
2022-11-27T06:13:47.441Z,12.12
2022-11-27T06:16:13.730Z,11.51
2022-11-27T06:18:40.027Z,11.20
2022-11-27T06:21:06.277Z,11.15
2022-11-27T06:23:32.529Z,11.21
2022-11-27T06:25:58.774Z,11.63
2022-11-27T06:28:25.028Z,12.48
2022-11-27T06:30:51.265Z,13.00
2022-11-27T06:33:17.522Z,12.16
2022-11-27T06:35:43.775Z,12.45
2022-11-27T06:38:10.024Z,12.01
2022-11-27T06:40:36.273Z,12.43
2022-11-27T06:43:02.528Z,12.46
2022-11-27T06:45:28.832Z,13.11
2022-11-27T06:47:55.097Z,13.27
2022-11-27T06:50:21.346Z,13.42
2022-11-27T06:52:47.582Z,14.34
2022-11-27T06:55:13.834Z,15.62
2022-11-27T06:57:40.087Z,15.67
2022-11-27T07:00:06.492Z,15.96
2022-11-27T07:02:32.778Z,14.90
2022-11-27T07:04:59.083Z,14.07
2022-11-27T07:07:25.410Z,14.10
2022-11-27T07:09:51.710Z,14.42
2022-11-27T07:12:17.960Z,14.98
2022-11-27T07:14:44.201Z,12.64
2022-11-27T07:17:10.434Z,12.13
2022-11-27T07:19:36.673Z,13.09
2022-11-27T07:22:03.992Z,12.94
2022-11-27T07:24:30.245Z,12.87
2022-11-27T07:26:56.497Z,13.05
2022-11-27T07:29:22.764Z,12.90
2022-11-27T07:31:49.076Z,12.38
2022-11-27T07:34:21.178Z,11.66
2022-11-27T07:36:48.027Z,11.70
2022-11-27T07:39:14.291Z,15.10
2022-11-27T07:41:40.553Z,15.41
2022-11-27T07:44:06.820Z,14.27
2022-11-27T07:46:33.076Z,14.01
2022-11-27T07:48:59.327Z,13.88
2022-11-27T07:51:25.589Z,14.35
2022-11-27T07:53:51.913Z,14.29
2022-11-27T07:56:18.241Z,14.57
2022-11-27T07:58:44.482Z,14.77
2022-11-27T08:01:10.850Z,14.23
2022-11-27T08:03:37.161Z,14.77
2022-11-27T08:06:03.410Z,17.58
2022-11-27T08:08:29.649Z,18.66
2022-11-27T08:10:55.904Z,14.26
2022-11-27T08:13:22.146Z,14.05
2022-11-27T08:15:48.402Z,14.43
2022-11-27T08:18:14.683Z,13.86
2022-11-27T08:20:40.945Z,14.07
2022-11-27T08:23:07.203Z,15.86
2022-11-27T08:25:33.459Z,16.48
2022-11-27T08:27:59.713Z,16.46
2022-11-27T08:30:26.132Z,16.40
2022-11-27T08:32:52.488Z,15.92
2022-11-27T08:35:18.742Z,15.52
2022-11-27T08:37:45.203Z,16.00
2022-11-27T08:40:11.447Z,16.05
2022-11-27T08:42:37.682Z,16.44
2022-11-27T08:45:03.925Z,16.59
2022-11-27T08:47:30.161Z,16.70
2022-11-27T08:49:56.401Z,17.03
2022-11-27T08:52:22.638Z,15.99
2022-11-27T08:54:51.976Z,16.11
2022-11-27T08:57:22.265Z,16.17
2022-11-27T08:59:48.518Z,16.58
2022-11-27T09:02:14.763Z,17.14
2022-11-27T09:04:41.218Z,16.85
2022-11-27T09:07:07.619Z,16.28
2022-11-27T09:09:33.866Z,16.15
2022-11-27T09:12:00.120Z,16.18
2022-11-27T09:14:26.358Z,15.59
2022-11-27T09:16:52.652Z,15.13
2022-11-27T09:19:18.922Z,15.86
2022-11-27T09:21:45.193Z,15.09
2022-11-27T09:24:11.435Z,15.24
2022-11-27T09:26:37.688Z,15.19
2022-11-27T09:29:03.929Z,15.03
2022-11-27T09:31:30.250Z,15.19
2022-11-27T09:33:56.558Z,14.75
2022-11-27T09:36:22.812Z,14.28
2022-11-27T09:38:49.057Z,14.73
2022-11-27T09:41:15.312Z,15.28
2022-11-27T09:43:41.557Z,15.31
2022-11-27T09:46:07.836Z,14.70
2022-11-27T09:48:34.119Z,15.52
2022-11-27T09:51:00.352Z,15.69
2022-11-27T09:53:26.585Z,15.65
2022-11-27T09:55:52.841Z,15.66
2022-11-27T09:58:19.095Z,15.44
2022-11-27T10:00:45.333Z,16.01
2022-11-27T10:03:11.735Z,15.65
2022-11-27T10:05:38.044Z,15.61
2022-11-27T10:08:06.924Z,15.81
2022-11-27T10:10:33.590Z,16.73
2022-11-27T10:12:59.865Z,16.58
2022-11-27T10:15:26.119Z,16.66
2022-11-27T10:17:52.365Z,16.40
2022-11-27T10:20:18.609Z,16.56
2022-11-27T10:22:44.846Z,16.18
2022-11-27T10:25:11.089Z,16.22
2022-11-27T10:27:37.331Z,16.53
2022-11-27T10:30:03.593Z,16.01
2022-11-27T10:35:16.083Z,16.03
2022-11-27T10:37:42.325Z,16.34
2022-11-27T10:40:08.581Z,15.92
2022-11-27T10:42:34.829Z,15.73
2022-11-27T10:45:01.061Z,15.33
2022-11-27T10:47:30.889Z,15.57
2022-11-27T10:49:59.676Z,15.80
2022-11-27T10:52:25.940Z,15.90
2022-11-27T10:54:52.198Z,15.89
2022-11-27T10:57:18.456Z,15.77
2022-11-27T10:59:44.690Z,15.15
2022-11-27T11:02:10.984Z,15.97
2022-11-27T11:04:38.623Z,15.09
2022-11-27T11:07:05.088Z,14.65
2022-11-27T11:09:31.325Z,15.76
2022-11-27T11:11:57.559Z,15.72
2022-11-27T11:14:23.820Z,15.80
2022-11-27T11:16:50.141Z,16.03
2022-11-27T11:19:16.432Z,15.99
2022-11-27T11:21:42.674Z,15.80
2022-11-27T11:24:08.924Z,15.66
2022-11-27T11:26:35.187Z,15.66
2022-11-27T11:29:01.443Z,15.90
2022-11-27T11:31:27.748Z,15.44
2022-11-27T11:33:54.092Z,15.75
2022-11-27T11:36:20.363Z,15.29
2022-11-27T11:38:46.620Z,15.79
2022-11-27T11:41:12.862Z,15.66
2022-11-27T11:43:39.218Z,15.40
2022-11-27T11:46:05.511Z,15.70
2022-11-27T11:48:31.784Z,16.17
2022-11-27T11:50:58.031Z,16.58
2022-11-27T11:53:24.269Z,16.51
2022-11-27T11:55:50.519Z,16.12
2022-11-27T11:58:16.765Z,16.48
2022-11-27T12:01:04.737Z,16.04
2022-11-27T12:03:29.258Z,16.02
2022-11-27T12:05:55.496Z,16.72
2022-11-27T12:08:21.757Z,16.66
2022-11-27T12:10:48.007Z,16.67
2022-11-27T12:13:14.257Z,30.63
2022-11-27T12:15:40.500Z,30.72
2022-11-27T12:18:06.734Z,22.42
2022-11-27T12:20:33.002Z,24.38
2022-11-27T12:22:59.268Z,25.34
2022-11-27T12:25:25.530Z,21.11
2022-11-27T12:27:51.769Z,20.06
2022-11-27T12:30:18.028Z,17.33
2022-11-27T12:32:44.290Z,17.51
2022-11-27T12:35:10.533Z,19.82
2022-11-27T12:37:36.805Z,18.49
2022-11-27T12:40:03.059Z,19.33
2022-11-27T12:42:29.320Z,18.18
2022-11-27T12:44:55.579Z,17.36
2022-11-27T12:47:21.820Z,16.55
2022-11-27T12:49:48.058Z,16.83
2022-11-27T12:52:14.298Z,17.37
2022-11-27T12:54:40.658Z,17.02
2022-11-27T12:57:07.022Z,17.23
2022-11-27T12:59:33.265Z,16.50
2022-11-27T13:01:59.628Z,17.04
2022-11-27T13:04:25.994Z,18.04
2022-11-27T13:06:52.242Z,17.12
2022-11-27T13:09:18.521Z,17.19
2022-11-27T13:11:44.784Z,16.72
2022-11-27T13:14:11.030Z,16.42
2022-11-27T13:16:37.335Z,17.40
2022-11-27T13:19:03.621Z,16.72
2022-11-27T13:21:29.884Z,17.20
2022-11-27T13:23:56.150Z,16.56
2022-11-27T13:26:26.273Z,16.50
2022-11-27T13:28:52.961Z,16.70
2022-11-27T13:31:19.267Z,16.16
2022-11-27T13:33:45.548Z,15.55
2022-11-27T13:36:11.820Z,16.20
2022-11-27T13:38:38.084Z,16.54
2022-11-27T13:41:04.417Z,16.34
2022-11-27T13:43:30.684Z,16.82
2022-11-27T13:45:56.960Z,16.21
2022-11-27T13:48:23.214Z,18.02
2022-11-27T13:50:49.467Z,18.56
2022-11-27T13:53:15.728Z,19.98
2022-11-27T13:55:41.973Z,19.63
2022-11-27T13:58:08.220Z,17.08
2022-11-27T14:00:34.472Z,16.62
2022-11-27T14:03:00.712Z,16.56
2022-11-27T14:05:26.981Z,16.61
2022-11-27T14:07:53.275Z,16.15
2022-11-27T14:10:19.575Z,15.89
2022-11-27T14:12:45.909Z,16.19
2022-11-27T14:15:12.145Z,16.24
2022-11-27T14:17:38.404Z,17.48
2022-11-27T14:20:04.665Z,16.83
2022-11-27T14:22:30.921Z,16.73
2022-11-27T14:24:57.171Z,17.18
2022-11-27T14:27:23.424Z,17.17
2022-11-27T14:29:49.681Z,16.50
2022-11-27T14:32:15.931Z,15.93
2022-11-27T14:34:42.598Z,16.25
2022-11-27T14:37:09.100Z,16.51
2022-11-27T14:39:35.347Z,16.97
2022-11-27T14:42:01.599Z,16.12
2022-11-27T14:44:27.836Z,16.49
2022-11-27T14:46:54.165Z,16.65
2022-11-27T14:49:20.469Z,17.00
2022-11-27T14:51:46.725Z,17.28
2022-11-27T14:54:12.966Z,16.90
2022-11-27T14:56:39.226Z,18.02
2022-11-27T14:59:05.557Z,17.86
2022-11-27T15:01:31.827Z,16.81
2022-11-27T15:03:58.106Z,16.57
2022-11-27T15:06:24.381Z,16.72
2022-11-27T15:09:09.153Z,16.80
2022-11-27T15:11:54.999Z,15.89
2022-11-27T15:14:22.613Z,16.05
2022-11-27T15:16:48.917Z,15.69
2022-11-27T15:19:15.247Z,15.33
2022-11-27T15:21:41.493Z,15.62
2022-11-27T15:24:07.745Z,15.46
2022-11-27T15:26:33.987Z,15.36
2022-11-27T15:29:00.344Z,14.94
2022-11-27T15:31:26.699Z,15.44
2022-11-27T15:33:53.021Z,15.18
2022-11-27T15:36:19.270Z,15.12
2022-11-27T15:38:45.524Z,15.51
2022-11-27T15:41:11.762Z,14.97
2022-11-27T15:43:38.014Z,15.10
2022-11-27T15:46:04.300Z,15.03
2022-11-27T15:48:30.584Z,15.23
2022-11-27T15:50:56.837Z,15.52
2022-11-27T15:53:23.072Z,15.59
2022-11-27T15:55:49.320Z,14.93
2022-11-27T15:58:15.635Z,15.61
2022-11-27T16:00:41.976Z,15.63
2022-11-27T16:03:08.242Z,14.93
2022-11-27T16:05:34.477Z,15.04
2022-11-27T16:08:00.803Z,14.46
2022-11-27T16:10:27.081Z,14.79
2022-11-27T16:12:53.344Z,15.19
2022-11-27T16:15:21.700Z,15.23
2022-11-27T16:17:49.483Z,14.58
2022-11-27T16:20:15.781Z,14.86
2022-11-27T16:22:42.025Z,15.20
2022-11-27T16:25:08.279Z,15.07
2022-11-27T16:27:34.541Z,15.42
2022-11-27T16:30:00.801Z,15.21
2022-11-27T16:32:27.066Z,15.92
2022-11-27T16:34:53.309Z,15.60
2022-11-27T16:37:19.546Z,15.48
2022-11-27T16:39:45.800Z,14.74
2022-11-27T16:42:12.047Z,15.09
2022-11-27T16:44:38.304Z,14.52
2022-11-27T16:47:04.585Z,14.70
2022-11-27T16:49:30.830Z,15.53
2022-11-27T16:51:57.076Z,15.78
2022-11-27T16:54:23.332Z,16.03
2022-11-27T16:56:49.585Z,16.24
2022-11-27T16:59:15.838Z,15.48
2022-11-27T17:01:42.273Z,17.74
2022-11-27T17:04:08.655Z,20.64
2022-11-27T17:06:34.909Z,21.02
2022-11-27T17:09:01.167Z,21.88
2022-11-27T17:11:27.427Z,21.52
2022-11-27T17:13:53.693Z,17.80
2022-11-27T17:16:20.022Z,15.36
2022-11-27T17:18:46.301Z,14.86
2022-11-27T17:21:12.663Z,14.58
2022-11-27T17:23:38.917Z,13.93
2022-11-27T17:26:05.157Z,13.80
2022-11-27T17:28:31.424Z,13.71
2022-11-27T17:30:57.683Z,13.05
2022-11-27T17:33:23.925Z,13.76
2022-11-27T17:35:50.170Z,13.06
2022-11-27T17:38:16.431Z,14.01
2022-11-27T17:40:42.691Z,15.31
2022-11-27T17:43:08.952Z,16.59
2022-11-27T17:45:35.265Z,17.43
2022-11-27T17:48:01.568Z,17.90
2022-11-27T17:50:27.813Z,17.09
2022-11-27T17:52:54.121Z,17.03
2022-11-27T17:55:20.358Z,20.44
2022-11-27T17:57:46.625Z,19.41
2022-11-27T18:00:12.864Z,18.38
2022-11-27T18:02:39.177Z,17.24
2022-11-27T18:05:05.485Z,15.27
2022-11-27T18:07:31.763Z,15.60
2022-11-27T18:09:58.129Z,17.15
2022-11-27T18:12:24.435Z,17.01
2022-11-27T18:14:50.677Z,16.09
2022-11-27T18:17:16.924Z,15.06
2022-11-27T18:19:43.445Z,15.26
2022-11-27T18:22:09.868Z,16.42
2022-11-27T18:24:36.127Z,16.56
2022-11-27T18:27:09.675Z,17.07
2022-11-27T18:29:36.053Z,16.86
2022-11-27T18:32:02.339Z,17.61
2022-11-27T18:34:28.589Z,18.03
2022-11-27T18:36:54.825Z,18.40
2022-11-27T18:39:21.072Z,16.82
2022-11-27T18:41:47.333Z,17.14
2022-11-27T18:44:13.621Z,18.45
2022-11-27T18:46:39.918Z,19.00
2022-11-27T18:49:06.249Z,20.14
2022-11-27T18:51:32.524Z,18.98
2022-11-27T18:53:58.764Z,17.85
2022-11-27T18:56:25.018Z,15.96
2022-11-27T18:58:51.266Z,16.23
2022-11-27T19:01:17.638Z,14.64
2022-11-27T19:03:43.957Z,13.94
2022-11-27T19:06:10.201Z,14.88
2022-11-27T19:08:36.438Z,15.49
2022-11-27T19:11:02.673Z,16.51
2022-11-27T19:13:28.925Z,16.64
2022-11-27T19:15:55.169Z,16.83
2022-11-27T19:18:21.405Z,17.40
2022-11-27T19:20:47.649Z,17.07
2022-11-27T19:23:13.913Z,16.41
2022-11-27T19:25:40.162Z,17.68
2022-11-27T19:28:06.414Z,19.85
2022-11-27T19:30:34.111Z,20.11
2022-11-27T19:33:00.512Z,20.66
2022-11-27T19:35:26.786Z,19.04
2022-11-27T19:37:53.033Z,17.29
2022-11-27T19:40:19.270Z,16.31
2022-11-27T19:42:45.529Z,15.54
2022-11-27T19:45:11.769Z,15.64
2022-11-27T19:47:38.029Z,15.62
2022-11-27T19:50:04.298Z,16.01
2022-11-27T19:52:30.542Z,15.81
2022-11-27T19:54:56.780Z,15.82
2022-11-27T19:57:23.029Z,15.94
2022-11-27T19:59:49.290Z,15.66
2022-11-27T20:02:15.577Z,16.05
2022-11-27T20:04:42.193Z,18.64
2022-11-27T20:07:08.565Z,19.32
2022-11-27T20:09:34.819Z,19.90
2022-11-27T20:12:01.167Z,18.64
2022-11-27T20:14:27.418Z,16.62
2022-11-27T20:16:53.712Z,15.92
2022-11-27T20:19:20.027Z,13.60
2022-11-27T20:21:46.276Z,13.35
2022-11-27T20:24:12.514Z,12.64
2022-11-27T20:26:42.640Z,11.63
2022-11-27T20:29:09.339Z,11.30
2022-11-27T20:31:35.635Z,11.31
2022-11-27T20:34:01.935Z,11.30
2022-11-27T20:36:28.177Z,11.21
2022-11-27T20:38:54.425Z,10.75
2022-11-27T20:41:20.761Z,10.83
2022-11-27T20:43:47.048Z,10.51
2022-11-27T20:46:13.389Z,10.73
2022-11-27T20:48:39.686Z,16.44
2022-11-27T20:51:05.928Z,16.05
2022-11-27T20:53:32.177Z,15.21
2022-11-27T20:55:58.434Z,14.69
2022-11-27T20:58:24.670Z,14.61
2022-11-27T21:00:50.945Z,15.72
2022-11-27T21:03:17.250Z,15.40
2022-11-27T21:05:43.490Z,16.25
2022-11-27T21:08:09.745Z,16.03
2022-11-27T21:10:35.991Z,15.30
2022-11-27T21:13:02.248Z,14.64
2022-11-27T21:15:28.491Z,14.84
2022-11-27T21:17:54.728Z,15.39
2022-11-27T21:20:20.993Z,15.57
2022-11-27T21:22:47.236Z,15.43
2022-11-27T21:25:13.496Z,14.87
2022-11-27T21:27:39.745Z,13.93
2022-11-27T21:30:05.980Z,12.44
2022-11-27T21:32:32.237Z,12.24
2022-11-27T21:34:58.484Z,12.32
2022-11-27T21:37:24.718Z,12.03
2022-11-27T21:39:50.957Z,12.00
2022-11-27T21:42:17.194Z,11.56
2022-11-27T21:44:43.560Z,11.62
2022-11-27T21:47:09.971Z,11.80
2022-11-27T21:49:36.240Z,11.76
2022-11-27T21:52:02.469Z,11.96
2022-11-27T21:54:28.732Z,12.27
2022-11-27T21:56:54.969Z,11.85
2022-11-27T21:59:21.204Z,12.57
2022-11-27T22:01:47.542Z,12.91
2022-11-27T22:04:13.878Z,14.30
2022-11-27T22:06:40.122Z,13.83
2022-11-27T22:09:09.306Z,14.31
2022-11-27T22:11:39.768Z,14.90
2022-11-27T22:14:06.002Z,14.26
2022-11-27T22:16:32.287Z,14.04
2022-11-27T22:18:58.561Z,14.34
2022-11-27T22:21:24.813Z,14.50
2022-11-27T22:23:51.049Z,14.14
2022-11-27T22:26:17.290Z,14.36
2022-11-27T22:28:43.520Z,14.32
2022-11-27T22:31:09.905Z,14.33
2022-11-27T22:33:36.308Z,13.87
2022-11-27T22:36:02.551Z,13.74
2022-11-27T22:38:28.803Z,13.72
2022-11-27T22:40:55.073Z,13.88
2022-11-27T22:43:21.356Z,13.80
2022-11-27T22:45:47.770Z,13.96
2022-11-27T22:48:14.076Z,13.06
2022-11-27T22:50:40.329Z,13.47
2022-11-27T22:53:06.589Z,13.69
2022-11-27T22:55:32.825Z,13.96
2022-11-27T22:57:59.116Z,14.51
2022-11-27T23:00:25.365Z,13.10
2022-11-27T23:02:51.689Z,13.05
2022-11-27T23:05:17.969Z,12.19
2022-11-27T23:07:44.274Z,12.07
2022-11-27T23:10:10.610Z,11.97
2022-11-27T23:12:36.841Z,12.17
2022-11-27T23:15:03.099Z,12.41
2022-11-27T23:17:29.332Z,11.84
2022-11-27T23:19:55.571Z,11.78
2022-11-27T23:22:21.833Z,11.54
2022-11-27T23:24:48.108Z,12.42
2022-11-27T23:27:14.351Z,12.91
2022-11-27T23:29:40.614Z,12.84
2022-11-27T23:32:06.896Z,12.70
2022-11-27T23:34:33.179Z,13.11
2022-11-27T23:36:59.436Z,12.95
2022-11-27T23:39:25.875Z,13.65
2022-11-27T23:41:52.138Z,14.27
2022-11-27T23:44:18.377Z,15.31
2022-11-27T23:46:44.638Z,15.57
2022-11-27T23:49:10.886Z,16.08
2022-11-27T23:51:37.135Z,15.92
2022-11-27T23:54:03.366Z,16.32
2022-11-27T23:56:29.632Z,16.51
2022-11-27T23:58:55.937Z,16.68
